sensor_id;sensor_type;location;lat;lon;timestamp;pressure;altitude;pressure_sealevel;temperature;humidity
67980;BME280;54760;47.490;19.030;2022-10-24T00:02:23;100407.25;;;16.81;77.15
67980;BME280;54760;47.490;19.030;2022-10-24T00:04:48;100403.13;;;16.86;76.98
67980;BME280;54760;47.490;19.030;2022-10-24T00:07:14;100406.66;;;16.56;78.16
67980;BME280;54760;47.490;19.030;2022-10-24T00:09:39;100400.09;;;16.62;77.94
67980;BME280;54760;47.490;19.030;2022-10-24T00:12:05;100399.31;;;16.62;78.11
67980;BME280;54760;47.490;19.030;2022-10-24T00:14:30;100403.44;;;16.35;79.69
67980;BME280;54760;47.490;19.030;2022-10-24T00:16:56;100403.50;;;16.44;79.18
67980;BME280;54760;47.490;19.030;2022-10-24T00:19:21;100400.34;;;16.33;79.57
67980;BME280;54760;47.490;19.030;2022-10-24T00:21:47;100402.59;;;16.69;77.61
67980;BME280;54760;47.490;19.030;2022-10-24T00:24:12;100408.22;;;16.35;78.83
67980;BME280;54760;47.490;19.030;2022-10-24T00:26:37;100403.13;;;16.12;80.16
67980;BME280;54760;47.490;19.030;2022-10-24T00:29:03;100400.16;;;16.50;78.48
67980;BME280;54760;47.490;19.030;2022-10-24T00:31:28;100399.53;;;16.02;80.73
67980;BME280;54760;47.490;19.030;2022-10-24T00:33:54;100404.56;;;15.82;81.80
67980;BME280;54760;47.490;19.030;2022-10-24T00:36:21;100410.22;;;15.78;82.59
67980;BME280;54760;47.490;19.030;2022-10-24T00:38:46;100406.75;;;15.87;82.42
67980;BME280;54760;47.490;19.030;2022-10-24T00:41:17;100397.91;;;16.14;80.23
67980;BME280;54760;47.490;19.030;2022-10-24T00:43:42;100389.59;;;16.26;80.00
67980;BME280;54760;47.490;19.030;2022-10-24T00:46:07;100393.34;;;15.98;80.89
67980;BME280;54760;47.490;19.030;2022-10-24T00:51:00;100391.75;;;15.88;81.15
67980;BME280;54760;47.490;19.030;2022-10-24T00:53:26;100388.41;;;16.15;79.92
67980;BME280;54760;47.490;19.030;2022-10-24T00:55:54;100382.91;;;16.36;78.98
67980;BME280;54760;47.490;19.030;2022-10-24T00:58:20;100385.56;;;15.84;81.33
67980;BME280;54760;47.490;19.030;2022-10-24T01:00:47;100380.88;;;15.93;81.28
67980;BME280;54760;47.490;19.030;2022-10-24T01:03:12;100382.00;;;15.62;82.79
67980;BME280;54760;47.490;19.030;2022-10-24T01:05:51;100380.88;;;15.93;80.92
67980;BME280;54760;47.490;19.030;2022-10-24T01:08:27;100371.41;;;16.16;79.88
67980;BME280;54760;47.490;19.030;2022-10-24T01:13:35;100373.38;;;16.37;78.54
67980;BME280;54760;47.490;19.030;2022-10-24T01:17:06;100374.41;;;15.87;80.25
67980;BME280;54760;47.490;19.030;2022-10-24T01:21:29;100376.72;;;15.42;82.84
67980;BME280;54760;47.490;19.030;2022-10-24T01:32:26;100376.72;;;15.42;82.87
67980;BME280;54760;47.490;19.030;2022-10-24T01:39:52;100383.56;;;15.84;80.39
67980;BME280;54760;47.490;19.030;2022-10-24T01:42:20;100379.37;;;15.20;83.73
67980;BME280;54760;47.490;19.030;2022-10-24T01:44:48;100375.91;;;15.67;81.35
67980;BME280;54760;47.490;19.030;2022-10-24T01:47:18;100378.34;;;15.65;81.28
67980;BME280;54760;47.490;19.030;2022-10-24T01:49:48;100370.38;;;15.67;81.43
67980;BME280;54760;47.490;19.030;2022-10-24T01:52:15;100360.62;;;15.53;82.05
67980;BME280;54760;47.490;19.030;2022-10-24T01:54:42;100369.53;;;15.44;83.23
67980;BME280;54760;47.490;19.030;2022-10-24T01:57:09;100367.53;;;15.92;79.76
67980;BME280;54760;47.490;19.030;2022-10-24T01:59:39;100371.09;;;15.80;80.96
67980;BME280;54760;47.490;19.030;2022-10-24T02:04:33;100372.16;;;15.95;79.84
67980;BME280;54760;47.490;19.030;2022-10-24T02:07:00;100375.50;;;15.55;81.82
67980;BME280;54760;47.490;19.030;2022-10-24T02:09:27;100363.91;;;15.48;81.75
67980;BME280;54760;47.490;19.030;2022-10-24T02:11:54;100360.13;;;15.67;80.91
67980;BME280;54760;47.490;19.030;2022-10-24T02:14:26;100342.44;;;15.99;79.50
67980;BME280;54760;47.490;19.030;2022-10-24T02:16:55;100344.84;;;15.53;81.92
67980;BME280;54760;47.490;19.030;2022-10-24T02:19:20;100344.50;;;15.39;82.65
67980;BME280;54760;47.490;19.030;2022-10-24T02:21:52;100345.97;;;15.18;83.86
67980;BME280;54760;47.490;19.030;2022-10-24T02:24:27;100330.75;;;15.01;85.00
67980;BME280;54760;47.490;19.030;2022-10-24T02:26:55;100338.00;;;15.20;83.99
67980;BME280;54760;47.490;19.030;2022-10-24T02:31:56;100339.66;;;15.77;80.89
67980;BME280;54760;47.490;19.030;2022-10-24T02:34:23;100336.75;;;15.46;82.50
67980;BME280;54760;47.490;19.030;2022-10-24T02:36:51;100347.03;;;15.58;81.70
67980;BME280;54760;47.490;19.030;2022-10-24T02:39:17;100349.09;;;15.89;80.64
67980;BME280;54760;47.490;19.030;2022-10-24T02:41:43;100344.34;;;14.95;84.82
67980;BME280;54760;47.490;19.030;2022-10-24T02:44:09;100350.72;;;14.92;85.50
67980;BME280;54760;47.490;19.030;2022-10-24T02:46:37;100344.97;;;15.25;83.75
67980;BME280;54760;47.490;19.030;2022-10-24T02:49:03;100342.91;;;15.03;84.90
67980;BME280;54760;47.490;19.030;2022-10-24T02:51:30;100344.44;;;15.17;84.96
67980;BME280;54760;47.490;19.030;2022-10-24T02:53:56;100346.41;;;15.29;84.23
67980;BME280;54760;47.490;19.030;2022-10-24T02:56:22;100352.28;;;15.66;81.31
67980;BME280;54760;47.490;19.030;2022-10-24T02:58:47;100349.25;;;15.38;82.60
67980;BME280;54760;47.490;19.030;2022-10-24T03:01:13;100344.84;;;15.28;83.20
67980;BME280;54760;47.490;19.030;2022-10-24T03:03:38;100337.78;;;15.27;83.46
67980;BME280;54760;47.490;19.030;2022-10-24T03:06:03;100339.72;;;15.05;85.02
67980;BME280;54760;47.490;19.030;2022-10-24T03:08:29;100327.25;;;14.88;85.59
67980;BME280;54760;47.490;19.030;2022-10-24T03:11:03;100328.97;;;15.32;83.52
67980;BME280;54760;47.490;19.030;2022-10-24T03:13:32;100327.66;;;15.24;83.41
67980;BME280;54760;47.490;19.030;2022-10-24T03:15:57;100329.66;;;15.11;84.12
67980;BME280;54760;47.490;19.030;2022-10-24T03:18:23;100317.50;;;15.21;83.68
67980;BME280;54760;47.490;19.030;2022-10-24T03:20:49;100323.62;;;15.03;84.96
67980;BME280;54760;47.490;19.030;2022-10-24T03:23:15;100326.16;;;15.57;82.31
67980;BME280;54760;47.490;19.030;2022-10-24T03:25:40;100318.75;;;15.54;81.97
67980;BME280;54760;47.490;19.030;2022-10-24T03:28:06;100315.19;;;15.88;79.83
67980;BME280;54760;47.490;19.030;2022-10-24T03:30:31;100299.53;;;15.16;83.52
67980;BME280;54760;47.490;19.030;2022-10-24T03:32:56;100299.69;;;14.88;85.23
67980;BME280;54760;47.490;19.030;2022-10-24T03:35:21;100302.63;;;15.06;84.38
67980;BME280;54760;47.490;19.030;2022-10-24T03:37:47;100313.78;;;15.49;82.42
67980;BME280;54760;47.490;19.030;2022-10-24T03:40:12;100310.84;;;15.78;80.71
67980;BME280;54760;47.490;19.030;2022-10-24T03:42:37;100318.16;;;15.72;80.34
67980;BME280;54760;47.490;19.030;2022-10-24T03:45:03;100323.59;;;15.50;81.67
67980;BME280;54760;47.490;19.030;2022-10-24T03:47:28;100319.56;;;15.77;80.27
67980;BME280;54760;47.490;19.030;2022-10-24T03:49:53;100325.94;;;15.05;83.48
67980;BME280;54760;47.490;19.030;2022-10-24T03:52:19;100313.59;;;15.44;82.79
67980;BME280;54760;47.490;19.030;2022-10-24T03:54:44;100314.87;;;15.65;80.85
67980;BME280;54760;47.490;19.030;2022-10-24T03:57:09;100320.59;;;15.23;82.82
67980;BME280;54760;47.490;19.030;2022-10-24T03:59:35;100318.53;;;15.62;81.28
67980;BME280;54760;47.490;19.030;2022-10-24T04:02:00;100313.59;;;15.44;81.95
67980;BME280;54760;47.490;19.030;2022-10-24T04:04:26;100322.63;;;15.57;80.32
67980;BME280;54760;47.490;19.030;2022-10-24T04:06:52;100320.59;;;15.70;80.45
67980;BME280;54760;47.490;19.030;2022-10-24T04:09:17;100331.13;;;15.63;80.57
67980;BME280;54760;47.490;19.030;2022-10-24T04:11:42;100332.88;;;15.56;80.40
67980;BME280;54760;47.490;19.030;2022-10-24T04:14:07;100340.81;;;14.95;83.43
67980;BME280;54760;47.490;19.030;2022-10-24T04:16:33;100341.03;;;15.13;83.19
67980;BME280;54760;47.490;19.030;2022-10-24T04:18:58;100346.66;;;14.97;83.33
67980;BME280;54760;47.490;19.030;2022-10-24T04:21:24;100334.75;;;14.74;84.70
67980;BME280;54760;47.490;19.030;2022-10-24T04:23:49;100341.47;;;14.99;84.17
67980;BME280;54760;47.490;19.030;2022-10-24T04:26:15;100340.03;;;14.56;85.57
67980;BME280;54760;47.490;19.030;2022-10-24T04:28:40;100343.00;;;14.37;86.74
67980;BME280;54760;47.490;19.030;2022-10-24T04:31:06;100332.00;;;14.62;86.05
67980;BME280;54760;47.490;19.030;2022-10-24T04:33:31;100337.84;;;14.51;86.12
67980;BME280;54760;47.490;19.030;2022-10-24T04:35:56;100331.09;;;14.40;87.18
67980;BME280;54760;47.490;19.030;2022-10-24T04:38:21;100329.00;;;15.20;83.23
67980;BME280;54760;47.490;19.030;2022-10-24T04:40:47;100334.50;;;15.07;83.62
67980;BME280;54760;47.490;19.030;2022-10-24T04:43:13;100325.97;;;15.39;81.86
67980;BME280;54760;47.490;19.030;2022-10-24T04:45:38;100314.59;;;14.90;83.39
67980;BME280;54760;47.490;19.030;2022-10-24T04:48:04;100323.28;;;14.89;83.52
67980;BME280;54760;47.490;19.030;2022-10-24T04:50:29;100318.34;;;15.43;81.34
67980;BME280;54760;47.490;19.030;2022-10-24T04:52:54;100325.25;;;15.01;83.35
67980;BME280;54760;47.490;19.030;2022-10-24T04:55:19;100312.53;;;15.29;81.59
67980;BME280;54760;47.490;19.030;2022-10-24T04:57:45;100318.66;;;14.86;83.15
67980;BME280;54760;47.490;19.030;2022-10-24T05:00:10;100316.47;;;14.55;85.08
67980;BME280;54760;47.490;19.030;2022-10-24T05:02:35;100313.31;;;15.29;81.63
67980;BME280;54760;47.490;19.030;2022-10-24T05:05:00;100304.53;;;15.09;82.31
67980;BME280;54760;47.490;19.030;2022-10-24T05:07:26;100305.69;;;15.21;81.66
67980;BME280;54760;47.490;19.030;2022-10-24T05:09:51;100306.94;;;15.07;81.47
67980;BME280;54760;47.490;19.030;2022-10-24T05:12:16;100306.94;;;15.20;80.93
67980;BME280;54760;47.490;19.030;2022-10-24T05:14:41;100311.63;;;14.85;81.95
67980;BME280;54760;47.490;19.030;2022-10-24T05:17:07;100322.72;;;14.81;82.19
67980;BME280;54760;47.490;19.030;2022-10-24T05:19:32;100337.94;;;14.48;83.88
67980;BME280;54760;47.490;19.030;2022-10-24T05:21:57;100335.28;;;14.44;84.07
67980;BME280;54760;47.490;19.030;2022-10-24T05:24:23;100336.06;;;15.08;81.42
67980;BME280;54760;47.490;19.030;2022-10-24T05:26:48;100354.56;;;15.20;80.60
67980;BME280;54760;47.490;19.030;2022-10-24T05:29:13;100354.91;;;14.59;82.82
67980;BME280;54760;47.490;19.030;2022-10-24T05:31:39;100346.94;;;14.36;85.16
67980;BME280;54760;47.490;19.030;2022-10-24T05:34:04;100356.91;;;14.96;81.50
67980;BME280;54760;47.490;19.030;2022-10-24T05:36:30;100345.41;;;14.47;83.50
67980;BME280;54760;47.490;19.030;2022-10-24T05:38:55;100348.91;;;14.35;84.51
67980;BME280;54760;47.490;19.030;2022-10-24T05:41:20;100349.72;;;14.48;84.32
67980;BME280;54760;47.490;19.030;2022-10-24T05:43:45;100354.28;;;14.26;84.88
67980;BME280;54760;47.490;19.030;2022-10-24T05:46:11;100369.25;;;14.25;84.63
67980;BME280;54760;47.490;19.030;2022-10-24T05:48:36;100360.97;;;14.41;84.36
67980;BME280;54760;47.490;19.030;2022-10-24T05:51:01;100371.44;;;14.46;83.87
67980;BME280;54760;47.490;19.030;2022-10-24T05:53:26;100371.22;;;14.12;85.54
67980;BME280;54760;47.490;19.030;2022-10-24T05:55:52;100378.16;;;14.16;85.80
67980;BME280;54760;47.490;19.030;2022-10-24T05:58:17;100378.44;;;14.35;85.28
67980;BME280;54760;47.490;19.030;2022-10-24T06:00:45;100375.66;;;14.35;84.37
67980;BME280;54760;47.490;19.030;2022-10-24T06:03:11;100374.94;;;14.18;85.22
67980;BME280;54760;47.490;19.030;2022-10-24T06:05:36;100377.84;;;14.27;84.98
67980;BME280;54760;47.490;19.030;2022-10-24T06:08:01;100381.38;;;14.82;81.83
67980;BME280;54760;47.490;19.030;2022-10-24T06:10:26;100389.87;;;14.74;82.71
67980;BME280;54760;47.490;19.030;2022-10-24T06:12:52;100395.59;;;14.67;82.65
67980;BME280;54760;47.490;19.030;2022-10-24T06:15:17;100395.59;;;14.93;81.62
67980;BME280;54760;47.490;19.030;2022-10-24T06:17:42;100394.47;;;14.52;83.64
67980;BME280;54760;47.490;19.030;2022-10-24T06:20:07;100388.16;;;14.52;83.53
67980;BME280;54760;47.490;19.030;2022-10-24T06:22:33;100393.59;;;14.55;83.76
67980;BME280;54760;47.490;19.030;2022-10-24T06:24:58;100390.66;;;14.88;81.80
67980;BME280;54760;47.490;19.030;2022-10-24T06:27:24;100383.25;;;14.59;83.83
67980;BME280;54760;47.490;19.030;2022-10-24T06:29:49;100382.50;;;15.09;81.56
67980;BME280;54760;47.490;19.030;2022-10-24T06:32:14;100388.22;;;15.28;80.08
67980;BME280;54760;47.490;19.030;2022-10-24T06:34:39;100376.31;;;14.93;81.79
67980;BME280;54760;47.490;19.030;2022-10-24T06:37:05;100383.66;;;15.46;78.93
67980;BME280;54760;47.490;19.030;2022-10-24T06:39:30;100387.22;;;14.84;81.36
67980;BME280;54760;47.490;19.030;2022-10-24T06:41:56;100380.94;;;14.70;82.37
67980;BME280;54760;47.490;19.030;2022-10-24T06:44:22;100381.38;;;14.69;82.55
67980;BME280;54760;47.490;19.030;2022-10-24T06:46:47;100383.28;;;14.85;82.15
67980;BME280;54760;47.490;19.030;2022-10-24T06:49:12;100371.81;;;14.99;80.93
67980;BME280;54760;47.490;19.030;2022-10-24T06:51:38;100377.09;;;14.81;81.23
67980;BME280;54760;47.490;19.030;2022-10-24T06:54:03;100370.91;;;14.77;81.88
67980;BME280;54760;47.490;19.030;2022-10-24T06:56:29;100364.50;;;14.54;82.68
67980;BME280;54760;47.490;19.030;2022-10-24T06:58:54;100361.12;;;14.34;84.05
67980;BME280;54760;47.490;19.030;2022-10-24T07:01:21;100364.41;;;14.29;84.36
67980;BME280;54760;47.490;19.030;2022-10-24T07:03:47;100359.53;;;14.62;83.24
67980;BME280;54760;47.490;19.030;2022-10-24T07:06:14;100364.75;;;14.98;80.70
67980;BME280;54760;47.490;19.030;2022-10-24T07:08:40;100366.41;;;14.95;80.83
67980;BME280;54760;47.490;19.030;2022-10-24T07:11:05;100364.06;;;14.68;82.48
67980;BME280;54760;47.490;19.030;2022-10-24T07:13:30;100362.63;;;14.64;82.60
67980;BME280;54760;47.490;19.030;2022-10-24T07:15:55;100368.72;;;14.84;81.42
67980;BME280;54760;47.490;19.030;2022-10-24T07:18:21;100379.72;;;14.97;81.12
67980;BME280;54760;47.490;19.030;2022-10-24T07:20:46;100391.19;;;15.08;80.36
67980;BME280;54760;47.490;19.030;2022-10-24T07:23:11;100394.81;;;14.54;83.21
67980;BME280;54760;47.490;19.030;2022-10-24T07:25:37;100404.19;;;14.69;82.47
67980;BME280;54760;47.490;19.030;2022-10-24T07:28:02;100407.78;;;14.41;84.32
67980;BME280;54760;47.490;19.030;2022-10-24T07:30:28;100417.31;;;14.91;82.21
67980;BME280;54760;47.490;19.030;2022-10-24T07:32:53;100420.00;;;14.94;81.49
67980;BME280;54760;47.490;19.030;2022-10-24T07:35:19;100408.69;;;14.51;84.03
67980;BME280;54760;47.490;19.030;2022-10-24T07:37:45;100416.50;;;14.52;83.94
67980;BME280;54760;47.490;19.030;2022-10-24T07:40:10;100413.97;;;14.58;83.80
67980;BME280;54760;47.490;19.030;2022-10-24T07:42:35;100402.84;;;14.61;83.88
67980;BME280;54760;47.490;19.030;2022-10-24T07:45:01;100396.50;;;14.36;85.15
67980;BME280;54760;47.490;19.030;2022-10-24T07:47:27;100402.00;;;14.36;85.25
67980;BME280;54760;47.490;19.030;2022-10-24T07:49:52;100403.47;;;14.11;86.69
67980;BME280;54760;47.490;19.030;2022-10-24T07:52:17;100396.78;;;14.25;86.31
67980;BME280;54760;47.490;19.030;2022-10-24T07:54:43;100403.59;;;14.37;86.10
67980;BME280;54760;47.490;19.030;2022-10-24T07:57:08;100399.44;;;14.57;84.82
67980;BME280;54760;47.490;19.030;2022-10-24T07:59:33;100405.75;;;14.70;83.81
67980;BME280;54760;47.490;19.030;2022-10-24T08:01:58;100408.28;;;14.65;84.57
67980;BME280;54760;47.490;19.030;2022-10-24T08:04:23;100414.09;;;14.54;85.11
67980;BME280;54760;47.490;19.030;2022-10-24T08:06:49;100413.97;;;14.45;86.02
67980;BME280;54760;47.490;19.030;2022-10-24T08:09:14;100415.84;;;14.32;87.08
67980;BME280;54760;47.490;19.030;2022-10-24T08:11:39;100411.34;;;14.25;87.55
67980;BME280;54760;47.490;19.030;2022-10-24T08:14:05;100408.69;;;14.22;nan
67980;BME280;54760;47.490;19.030;2022-10-24T08:16:30;100413.31;;;14.66;85.83
67980;BME280;54760;47.490;19.030;2022-10-24T08:18:56;100407.72;;;14.83;84.85
67980;BME280;54760;47.490;19.030;2022-10-24T08:21:22;100402.34;;;14.09;88.38
67980;BME280;54760;47.490;19.030;2022-10-24T08:23:48;100393.78;;;14.19;88.88
67980;BME280;54760;47.490;19.030;2022-10-24T08:26:15;100398.53;;;14.19;88.40
67980;BME280;54760;47.490;19.030;2022-10-24T08:28:42;100398.81;;;14.91;84.37
67980;BME280;54760;47.490;19.030;2022-10-24T08:31:10;100398.25;;;15.34;82.08
67980;BME280;54760;47.490;19.030;2022-10-24T08:33:35;100408.06;;;14.85;83.91
67980;BME280;54760;47.490;19.030;2022-10-24T08:36:03;100394.47;;;14.52;86.26
67980;BME280;54760;47.490;19.030;2022-10-24T08:38:28;100393.69;;;14.52;87.20
67980;BME280;54760;47.490;19.030;2022-10-24T08:40:54;100398.88;;;14.62;85.93
67980;BME280;54760;47.490;19.030;2022-10-24T08:43:20;100384.72;;;14.35;87.98
67980;BME280;54760;47.490;19.030;2022-10-24T08:48:18;100383.56;;;14.20;89.77
67980;BME280;54760;47.490;19.030;2022-10-24T08:50:46;100381.06;;;14.80;86.45
67980;BME280;54760;47.490;19.030;2022-10-24T08:53:29;100373.00;;;15.23;83.49
67980;BME280;54760;47.490;19.030;2022-10-24T08:55:56;100362.22;;;15.03;84.84
67980;BME280;54760;47.490;19.030;2022-10-24T09:00:48;100361.84;;;15.27;82.41
67980;BME280;54760;47.490;19.030;2022-10-24T09:05:47;100349.94;;;14.66;86.24
67980;BME280;54760;47.490;19.030;2022-10-24T09:08:20;100355.69;;;15.10;83.84
67980;BME280;54760;47.490;19.030;2022-10-24T09:11:09;100362.41;;;14.71;85.01
67980;BME280;54760;47.490;19.030;2022-10-24T09:13:33;100364.38;;;15.21;82.68
67980;BME280;54760;47.490;19.030;2022-10-24T09:15:59;100367.41;;;15.61;81.12
67980;BME280;54760;47.490;19.030;2022-10-24T09:18:26;100362.41;;;15.69;80.01
67980;BME280;54760;47.490;19.030;2022-10-24T09:20:53;100366.75;;;15.44;81.70
67980;BME280;54760;47.490;19.030;2022-10-24T09:23:19;100373.06;;;15.57;80.36
67980;BME280;54760;47.490;19.030;2022-10-24T09:25:55;100372.16;;;15.60;79.71
67980;BME280;54760;47.490;19.030;2022-10-24T09:28:21;100375.97;;;15.29;81.00
67980;BME280;54760;47.490;19.030;2022-10-24T09:30:47;100369.66;;;15.53;80.60
67980;BME280;54760;47.490;19.030;2022-10-24T09:33:29;100372.00;;;15.77;79.21
67980;BME280;54760;47.490;19.030;2022-10-24T09:35:56;100375.94;;;15.88;78.70
67980;BME280;54760;47.490;19.030;2022-10-24T09:38:25;100374.16;;;15.94;78.64
67980;BME280;54760;47.490;19.030;2022-10-24T09:40:52;100388.00;;;15.82;79.16
67980;BME280;54760;47.490;19.030;2022-10-24T09:43:20;100384.19;;;16.01;78.27
67980;BME280;54760;47.490;19.030;2022-10-24T09:46:06;100406.41;;;15.25;80.89
67980;BME280;54760;47.490;19.030;2022-10-24T09:48:38;100395.59;;;15.31;81.79
67980;BME280;54760;47.490;19.030;2022-10-24T09:51:08;100399.25;;;15.53;80.59
67980;BME280;54760;47.490;19.030;2022-10-24T09:53:41;100402.03;;;15.75;79.61
67980;BME280;54760;47.490;19.030;2022-10-24T09:56:21;100407.72;;;15.58;79.82
67980;BME280;54760;47.490;19.030;2022-10-24T09:58:46;100399.03;;;15.82;78.96
67980;BME280;54760;47.490;19.030;2022-10-24T10:03:59;100394.50;;;15.15;82.39
67980;BME280;54760;47.490;19.030;2022-10-24T10:06:25;100400.66;;;15.57;80.53
67980;BME280;54760;47.490;19.030;2022-10-24T10:08:51;100401.38;;;16.05;78.35
67980;BME280;54760;47.490;19.030;2022-10-24T10:11:23;100390.44;;;15.80;78.97
67980;BME280;54760;47.490;19.030;2022-10-24T10:13:50;100395.66;;;15.65;79.64
67980;BME280;54760;47.490;19.030;2022-10-24T10:16:27;100397.25;;;15.53;80.44
67980;BME280;54760;47.490;19.030;2022-10-24T10:19:14;100389.41;;;15.39;80.37
67980;BME280;54760;47.490;19.030;2022-10-24T10:21:58;100382.87;;;15.46;81.11
67980;BME280;54760;47.490;19.030;2022-10-24T10:24:35;100378.03;;;15.84;78.86
67980;BME280;54760;47.490;19.030;2022-10-24T10:29:47;100370.81;;;15.78;79.50
67980;BME280;54760;47.490;19.030;2022-10-24T10:32:16;100376.22;;;15.69;80.10
67980;BME280;54760;47.490;19.030;2022-10-24T10:35:19;100371.59;;;15.66;80.29
67980;BME280;54760;47.490;19.030;2022-10-24T10:37:38;100368.84;;;15.66;80.60
67980;BME280;54760;47.490;19.030;2022-10-24T10:40:13;100359.06;;;15.86;79.45
67980;BME280;54760;47.490;19.030;2022-10-24T10:45:45;100360.34;;;16.16;78.43
67980;BME280;54760;47.490;19.030;2022-10-24T10:56:24;100350.53;;;16.15;77.89
67980;BME280;54760;47.490;19.030;2022-10-24T11:01:29;100347.44;;;15.91;79.21
67980;BME280;54760;47.490;19.030;2022-10-24T11:04:12;100341.84;;;15.35;82.09
67980;BME280;54760;47.490;19.030;2022-10-24T11:06:43;100340.59;;;15.62;81.52
67980;BME280;54760;47.490;19.030;2022-10-24T11:11:52;100341.50;;;16.45;77.68
67980;BME280;54760;47.490;19.030;2022-10-24T11:14:34;100344.72;;;16.66;75.98
67980;BME280;54760;47.490;19.030;2022-10-24T11:19:52;100338.31;;;16.25;78.10
67980;BME280;54760;47.490;19.030;2022-10-24T11:22:23;100331.66;;;15.92;78.39
67980;BME280;54760;47.490;19.030;2022-10-24T11:24:59;100335.75;;;16.31;76.72
67980;BME280;54760;47.490;19.030;2022-10-24T11:27:31;100335.59;;;16.13;77.63
67980;BME280;54760;47.490;19.030;2022-10-24T11:32:37;100340.44;;;16.74;75.10
67980;BME280;54760;47.490;19.030;2022-10-24T11:37:52;100338.47;;;16.53;75.84
67980;BME280;54760;47.490;19.030;2022-10-24T11:40:21;100332.63;;;16.51;75.96
67980;BME280;54760;47.490;19.030;2022-10-24T11:43:09;100322.94;;;16.77;74.77
67980;BME280;54760;47.490;19.030;2022-10-24T11:45:42;100329.13;;;16.81;74.82
67980;BME280;54760;47.490;19.030;2022-10-24T11:51:16;100315.81;;;16.67;75.23
67980;BME280;54760;47.490;19.030;2022-10-24T11:53:50;100322.13;;;17.16;72.65
67980;BME280;54760;47.490;19.030;2022-10-24T11:59:05;100329.50;;;16.61;74.83
67980;BME280;54760;47.490;19.030;2022-10-24T12:06:58;100316.31;;;17.32;72.67
67980;BME280;54760;47.490;19.030;2022-10-24T12:09:39;100318.37;;;16.92;74.05
67980;BME280;54760;47.490;19.030;2022-10-24T12:14:55;100322.44;;;17.18;72.54
67980;BME280;54760;47.490;19.030;2022-10-24T12:19:52;100298.75;;;17.08;72.53
67980;BME280;54760;47.490;19.030;2022-10-24T12:22:18;100293.56;;;16.39;75.21
67980;BME280;54760;47.490;19.030;2022-10-24T12:24:47;100299.91;;;16.80;74.55
67980;BME280;54760;47.490;19.030;2022-10-24T12:29:45;100297.25;;;16.67;74.25
67980;BME280;54760;47.490;19.030;2022-10-24T12:32:27;100291.03;;;16.85;73.37
67980;BME280;54760;47.490;19.030;2022-10-24T12:34:58;100285.25;;;17.10;72.65
67980;BME280;54760;47.490;19.030;2022-10-24T12:39:50;100300.06;;;17.53;72.42
67980;BME280;54760;47.490;19.030;2022-10-24T12:44:50;100284.06;;;17.29;72.11
67980;BME280;54760;47.490;19.030;2022-10-24T12:47:32;100296.22;;;16.83;73.71
67980;BME280;54760;47.490;19.030;2022-10-24T12:50:48;100302.38;;;16.87;73.79
67980;BME280;54760;47.490;19.030;2022-10-24T12:57:52;100269.12;;;17.18;72.75
67980;BME280;54760;47.490;19.030;2022-10-24T13:00:28;100262.03;;;16.99;73.46
67980;BME280;54760;47.490;19.030;2022-10-24T13:05:46;100256.09;;;17.64;71.21
67980;BME280;54760;47.490;19.030;2022-10-24T13:16:50;100266.34;;;17.09;72.56
67980;BME280;54760;47.490;19.030;2022-10-24T13:19:18;100257.00;;;17.24;72.01
67980;BME280;54760;47.490;19.030;2022-10-24T13:21:49;100257.78;;;17.43;71.51
67980;BME280;54760;47.490;19.030;2022-10-24T13:29:14;100242.84;;;17.41;71.75
67980;BME280;54760;47.490;19.030;2022-10-24T13:31:49;100239.16;;;17.53;71.32
67980;BME280;54760;47.490;19.030;2022-10-24T13:36:45;100242.84;;;17.41;71.27
67980;BME280;54760;47.490;19.030;2022-10-24T13:39:16;100239.63;;;17.60;71.46
67980;BME280;54760;47.490;19.030;2022-10-24T13:41:49;100241.50;;;17.63;71.41
67980;BME280;54760;47.490;19.030;2022-10-24T13:44:41;100247.44;;;17.80;70.95
67980;BME280;54760;47.490;19.030;2022-10-24T13:52:48;100243.00;;;17.46;71.51
67980;BME280;54760;47.490;19.030;2022-10-24T13:55:24;100250.53;;;17.18;72.63
67980;BME280;54760;47.490;19.030;2022-10-24T13:57:52;100244.66;;;17.07;73.30
67980;BME280;54760;47.490;19.030;2022-10-24T14:00:28;100252.78;;;16.83;74.53
67980;BME280;54760;47.490;19.030;2022-10-24T14:02:54;100244.47;;;16.83;74.53
67980;BME280;54760;47.490;19.030;2022-10-24T14:05:31;100247.44;;;17.07;73.89
67980;BME280;54760;47.490;19.030;2022-10-24T14:07:57;100238.19;;;17.01;74.02
67980;BME280;54760;47.490;19.030;2022-10-24T14:10:23;100242.81;;;16.95;74.08
67980;BME280;54760;47.490;19.030;2022-10-24T14:12:49;100244.22;;;17.09;73.86
67980;BME280;54760;47.490;19.030;2022-10-24T14:15:21;100238.50;;;16.94;74.07
67980;BME280;54760;47.490;19.030;2022-10-24T14:18:20;100241.56;;;16.87;74.08
67980;BME280;54760;47.490;19.030;2022-10-24T14:20:38;100248.00;;;16.84;74.57
67980;BME280;54760;47.490;19.030;2022-10-24T14:28:44;100224.97;;;16.87;74.89
67980;BME280;54760;47.490;19.030;2022-10-24T14:31:23;100229.12;;;16.92;74.91
67980;BME280;54760;47.490;19.030;2022-10-24T14:33:50;100239.41;;;16.91;74.79
67980;BME280;54760;47.490;19.030;2022-10-24T14:36:16;100234.66;;;17.01;74.57
67980;BME280;54760;47.490;19.030;2022-10-24T14:38:44;100222.53;;;16.98;74.48
67980;BME280;54760;47.490;19.030;2022-10-24T14:41:10;100229.00;;;17.04;74.77
67980;BME280;54760;47.490;19.030;2022-10-24T14:43:36;100236.38;;;17.16;74.47
67980;BME280;54760;47.490;19.030;2022-10-24T14:48:30;100233.44;;;17.11;74.35
67980;BME280;54760;47.490;19.030;2022-10-24T14:51:03;100220.09;;;17.18;74.36